Time;durP1;ratioP1;P1;durP2;ratioP2;P2;SDS_P1;SDS_P2;PMS_P1;PMS_P2;Temp;Humidity;BMP_temperature;BMP_pressure;BME280_temperature;BME280_humidity;BME280_pressure;Samples;Min_cycle;Max_cycle;Signal;HPM_P1;HPM_P2
2022/07/12 00:02:14;;;;;;;0.30;0.30;;;15.20;99.90;;;;;;4961472;28;20467;-63
2022/07/12 00:04:40;;;;;;;0.20;0.20;;;15.20;99.90;;;;;;4964684;28;20452;-64
2022/07/12 00:07:07;;;;;;;0.75;0.40;;;15.20;99.90;;;;;;4964116;28;21014;-64
2022/07/12 00:09:36;;;;;;;0.40;0.40;;;15.20;99.90;;;;;;4957326;28;20445;-63
2022/07/12 00:12:06;;;;;;;0.35;0.35;;;15.20;99.90;;;;;;4965968;28;20498;-63
2022/07/12 00:14:33;;;;;;;0.38;0.38;;;15.20;99.90;;;;;;4963440;28;20446;-63
2022/07/12 00:17:00;;;;;;;0.50;0.50;;;15.20;99.90;;;;;;4965860;28;20519;-63
2022/07/12 00:19:26;;;;;;;0.28;0.28;;;15.20;99.90;;;;;;4956329;28;20588;-64
2022/07/12 00:21:53;;;;;;;0.30;0.30;;;15.10;99.90;;;;;;4956503;28;20457;-64
2022/07/12 00:24:20;;;;;;;0.20;0.20;;;15.10;99.90;;;;;;4965752;28;20858;-64
2022/07/12 00:26:50;;;;;;;0.32;0.32;;;15.20;99.90;;;;;;4963996;28;20553;-64
2022/07/12 00:29:16;;;;;;;0.60;0.30;;;15.20;99.90;;;;;;4959968;28;20919;-63
2022/07/12 00:31:43;;;;;;;0.47;0.47;;;15.20;99.90;;;;;;4975885;28;20444;-63
2022/07/12 00:34:10;;;;;;;0.30;0.30;;;15.20;99.90;;;;;;4963092;28;20437;-63
2022/07/12 00:36:37;;;;;;;0.30;0.30;;;15.20;99.90;;;;;;4958770;28;20438;-63
2022/07/12 00:39:04;;;;;;;0.43;0.43;;;15.20;99.90;;;;;;4960046;28;20977;-63
2022/07/12 00:41:30;;;;;;;0.33;0.33;;;15.10;99.90;;;;;;4959142;28;20454;-62
2022/07/12 00:43:58;;;;;;;0.30;0.30;;;15.10;99.90;;;;;;4962600;28;20519;-64
2022/07/12 00:46:25;;;;;;;0.30;0.30;;;15.00;99.90;;;;;;4962228;28;20436;-63
2022/07/12 00:48:53;;;;;;;0.20;0.20;;;15.00;99.90;;;;;;4961901;28;20498;-63
2022/07/12 00:51:21;;;;;;;0.40;0.40;;;14.90;99.90;;;;;;4955514;28;20531;-63
2022/07/12 00:53:49;;;;;;;0.40;0.40;;;14.80;99.90;;;;;;4958729;28;20891;-63
2022/07/12 00:56:15;;;;;;;0.32;0.32;;;14.70;99.90;;;;;;4964912;28;20466;-63
2022/07/12 00:58:44;;;;;;;0.28;0.28;;;14.50;99.90;;;;;;4970494;28;20435;-64
2022/07/12 01:01:11;;;;;;;0.35;0.35;;;14.30;99.90;;;;;;4963805;28;20607;-64
2022/07/12 01:03:38;;;;;;;0.30;0.30;;;14.10;99.90;;;;;;5002665;28;20440;-64
2022/07/12 01:06:07;;;;;;;0.30;0.30;;;13.90;99.90;;;;;;4963193;28;20501;-63
2022/07/12 01:08:35;;;;;;;0.40;0.40;;;13.70;99.90;;;;;;4956077;28;20541;-63
2022/07/12 01:11:02;;;;;;;0.30;0.30;;;13.50;99.90;;;;;;4963243;28;20948;-64
2022/07/12 01:13:29;;;;;;;0.40;0.40;;;13.30;99.90;;;;;;4962812;28;20440;-63
2022/07/12 01:15:57;;;;;;;0.40;0.40;;;13.10;99.90;;;;;;4965003;28;20986;-63
2022/07/12 01:18:27;;;;;;;0.30;0.30;;;13.00;99.90;;;;;;4962058;28;20513;-63
2022/07/12 01:20:54;;;;;;;0.40;0.40;;;12.90;99.90;;;;;;4959191;28;20868;-63
2022/07/12 01:23:23;;;;;;;0.30;0.30;;;12.90;99.90;;;;;;4958826;28;20473;-63
2022/07/12 01:25:50;;;;;;;0.30;0.30;;;12.80;99.90;;;;;;4969730;28;20479;-63
2022/07/12 01:28:17;;;;;;;0.50;0.50;;;12.90;99.90;;;;;;4963065;28;20462;-63
2022/07/12 01:30:44;;;;;;;0.32;0.32;;;12.90;99.90;;;;;;4958876;28;20434;-63
2022/07/12 01:33:12;;;;;;;0.20;0.20;;;12.90;99.90;;;;;;4963190;28;21268;-64
2022/07/12 01:35:39;;;;;;;0.40;0.40;;;12.80;99.90;;;;;;4964715;28;20467;-63
2022/07/12 01:38:08;;;;;;;0.38;0.38;;;12.80;99.90;;;;;;4963018;28;20503;-64
2022/07/12 01:40:37;;;;;;;0.30;0.30;;;12.70;99.90;;;;;;4963747;28;20538;-63
2022/07/12 01:43:06;;;;;;;0.30;0.30;;;12.60;99.90;;;;;;4966282;28;20961;-63
2022/07/12 01:45:35;;;;;;;0.47;0.33;;;12.60;99.90;;;;;;4974037;28;21138;-64
2022/07/12 01:48:03;;;;;;;0.30;0.30;;;12.40;99.90;;;;;;4964438;28;20985;-64
2022/07/12 01:50:30;;;;;;;0.30;0.30;;;12.40;99.90;;;;;;4957802;28;20440;-64
2022/07/12 01:52:57;;;;;;;0.20;0.20;;;12.30;99.90;;;;;;4956062;28;20506;-64
2022/07/12 01:55:23;;;;;;;0.30;0.30;;;12.30;99.90;;;;;;4956131;28;20528;-69
2022/07/12 01:57:53;;;;;;;0.17;0.17;;;12.30;99.90;;;;;;4962353;28;20525;-64
2022/07/12 02:00:20;;;;;;;0.30;0.30;;;12.30;99.90;;;;;;4964999;28;20520;-64
2022/07/12 02:02:47;;;;;;;0.30;0.30;;;12.20;99.90;;;;;;4958957;28;20806;-64
2022/07/12 02:05:14;;;;;;;0.38;0.38;;;12.20;99.90;;;;;;4962375;28;20437;-64
2022/07/12 02:07:41;;;;;;;0.50;0.50;;;12.20;99.90;;;;;;4964705;28;20482;-64
2022/07/12 02:10:09;;;;;;;0.30;0.30;;;12.00;99.90;;;;;;4957792;28;21016;-64
2022/07/12 02:12:41;;;;;;;0.35;0.30;;;12.00;99.90;;;;;;4965283;28;20433;-65
2022/07/12 02:15:09;;;;;;;0.30;0.30;;;12.00;99.90;;;;;;4955901;28;20523;-64
2022/07/12 02:17:36;;;;;;;0.40;0.40;;;12.00;99.90;;;;;;4952801;28;20523;-62
2022/07/12 02:20:04;;;;;;;0.30;0.30;;;11.90;99.90;;;;;;4962745;28;20522;-63
2022/07/12 02:22:31;;;;;;;0.50;0.38;;;11.80;99.90;;;;;;4963300;28;20523;-63
2022/07/12 02:24:58;;;;;;;0.40;0.40;;;11.80;99.90;;;;;;4962539;28;20432;-63
2022/07/12 02:27:26;;;;;;;0.30;0.30;;;11.70;99.90;;;;;;4968680;28;20521;-63
2022/07/12 02:29:53;;;;;;;0.30;0.30;;;11.70;99.90;;;;;;4963504;28;20515;-63
2022/07/12 02:32:20;;;;;;;0.38;0.38;;;11.70;99.90;;;;;;4963034;28;20435;-63
2022/07/12 02:34:47;;;;;;;0.35;0.35;;;11.60;99.90;;;;;;4961753;28;20436;-63
2022/07/12 02:37:14;;;;;;;0.20;0.20;;;11.50;99.90;;;;;;4969179;28;20446;-63
2022/07/12 02:39:41;;;;;;;0.40;0.40;;;11.50;99.90;;;;;;4962928;28;20493;-63
2022/07/12 02:42:11;;;;;;;0.20;0.20;;;11.50;99.90;;;;;;4954402;28;21026;-63
2022/07/12 02:44:38;;;;;;;0.30;0.30;;;11.50;99.90;;;;;;4959572;28;20452;-63
2022/07/12 02:47:05;;;;;;;0.30;0.30;;;11.50;99.90;;;;;;4967856;28;20441;-63
2022/07/12 02:49:35;;;;;;;0.40;0.40;;;11.40;99.90;;;;;;4953303;28;20532;-63
2022/07/12 02:52:07;;;;;;;0.38;0.38;;;11.40;99.90;;;;;;4966487;28;20447;-63
2022/07/12 02:54:34;;;;;;;0.20;0.20;;;11.30;99.90;;;;;;4963738;28;20428;-63
2022/07/12 02:57:01;;;;;;;0.20;0.20;;;11.30;99.90;;;;;;4966612;28;20767;-63
2022/07/12 02:59:28;;;;;;;0.30;0.30;;;11.40;99.90;;;;;;4958024;28;20516;-63
2022/07/12 03:01:54;;;;;;;0.32;0.32;;;11.40;99.90;;;;;;4958909;28;20442;-63
2022/07/12 03:04:21;;;;;;;0.60;0.60;;;11.40;99.90;;;;;;4958260;28;20935;-64
2022/07/12 03:06:51;;;;;;;0.25;0.25;;;11.30;99.90;;;;;;4958706;28;20533;-64
2022/07/12 03:09:18;;;;;;;0.25;0.25;;;11.30;99.90;;;;;;4962243;28;20434;-64
2022/07/12 03:11:45;;;;;;;0.20;0.20;;;11.20;99.90;;;;;;4960108;28;20490;-63
2022/07/12 03:14:11;;;;;;;0.60;0.40;;;11.20;99.90;;;;;;4964270;28;20436;-63
2022/07/12 03:16:38;;;;;;;0.40;0.40;;;11.20;99.90;;;;;;4982857;28;20944;-64
2022/07/12 03:19:05;;;;;;;0.38;0.38;;;11.30;99.90;;;;;;4958320;28;20436;-64
2022/07/12 03:21:32;;;;;;;0.30;0.30;;;11.40;99.90;;;;;;4964361;28;20438;-64
2022/07/12 03:23:58;;;;;;;0.30;0.30;;;11.50;99.90;;;;;;4967392;28;20442;-64
2022/07/12 03:26:26;;;;;;;0.20;0.20;;;11.70;99.90;;;;;;4956233;28;20431;-64
2022/07/12 03:28:52;;;;;;;0.10;0.10;;;11.90;99.90;;;;;;4963193;28;20477;-63
2022/07/12 03:31:24;;;;;;;0.22;0.22;;;12.00;99.90;;;;;;4974300;28;20444;-64
2022/07/12 03:33:54;;;;;;;0.30;0.30;;;12.10;99.90;;;;;;4967800;28;20443;-63
2022/07/12 03:36:20;;;;;;;0.25;0.25;;;12.20;99.90;;;;;;4961314;28;20491;-63
2022/07/12 03:38:47;;;;;;;0.40;0.40;;;12.20;99.90;;;;;;4965867;28;20507;-64
2022/07/12 03:41:14;;;;;;;0.20;0.20;;;12.20;99.90;;;;;;4965267;28;20446;-64
2022/07/12 03:43:41;;;;;;;0.20;0.20;;;12.30;99.90;;;;;;4961802;28;20444;-63
2022/07/12 03:46:08;;;;;;;0.40;0.40;;;12.20;99.90;;;;;;4963879;28;20436;-63
2022/07/12 03:48:37;;;;;;;0.40;0.20;;;12.30;99.90;;;;;;4964256;28;20442;-64
2022/07/12 03:51:04;;;;;;;0.30;0.30;;;12.30;99.90;;;;;;4970596;28;20463;-64
2022/07/12 03:53:31;;;;;;;0.20;0.20;;;12.20;99.90;;;;;;4971964;28;20560;-63
2022/07/12 03:55:58;;;;;;;0.30;0.30;;;12.20;99.90;;;;;;4959418;28;20552;-63
2022/07/12 03:58:24;;;;;;;0.20;0.20;;;12.20;99.90;;;;;;4965976;28;20910;-65
2022/07/12 04:00:51;;;;;;;0.40;0.40;;;12.30;99.90;;;;;;4965476;28;20586;-63
2022/07/12 04:03:18;;;;;;;0.30;0.30;;;12.40;99.90;;;;;;4956505;28;20439;-63
2022/07/12 04:05:45;;;;;;;0.22;0.22;;;12.30;99.90;;;;;;4959450;28;20432;-63
2022/07/12 04:08:16;;;;;;;0.30;0.30;;;12.30;99.90;;;;;;4958599;28;20434;-63
2022/07/12 04:10:45;;;;;;;0.40;0.40;;;12.20;99.90;;;;;;4963015;28;20444;-63
2022/07/12 04:13:12;;;;;;;0.27;0.27;;;12.10;99.90;;;;;;4963074;28;20440;-63
2022/07/12 04:15:39;;;;;;;0.40;0.40;;;12.10;99.90;;;;;;4967291;28;20440;-63
2022/07/12 04:18:06;;;;;;;0.30;0.30;;;12.10;99.90;;;;;;4966432;28;20442;-63
2022/07/12 04:20:33;;;;;;;0.37;0.37;;;12.10;99.90;;;;;;4957427;28;20440;-63
2022/07/12 04:22:59;;;;;;;0.57;0.57;;;12.10;99.90;;;;;;4950884;28;20442;-63
2022/07/12 04:25:32;;;;;;;0.40;0.40;;;12.10;99.90;;;;;;4961160;28;20432;-63
2022/07/12 04:28:01;;;;;;;0.38;0.38;;;12.30;99.90;;;;;;4950392;28;20928;-63
2022/07/12 04:30:29;;;;;;;0.60;0.40;;;12.30;99.90;;;;;;4960423;28;20440;-63
2022/07/12 04:32:59;;;;;;;0.50;0.50;;;12.40;99.90;;;;;;4959041;28;20442;-63
2022/07/12 04:35:25;;;;;;;0.28;0.28;;;12.50;99.90;;;;;;4966823;28;20485;-63
2022/07/12 04:37:52;;;;;;;0.30;0.30;;;12.60;99.90;;;;;;4951803;28;20965;-63
2022/07/12 04:40:21;;;;;;;0.52;0.30;;;12.70;99.90;;;;;;4965131;28;20448;-63
2022/07/12 04:42:48;;;;;;;0.30;0.30;;;12.80;99.90;;;;;;4957158;28;20966;-63
2022/07/12 04:45:15;;;;;;;0.50;0.30;;;12.90;99.90;;;;;;4948289;28;20511;-64
2022/07/12 04:47:43;;;;;;;0.30;0.30;;;13.20;99.90;;;;;;4951107;28;20916;-64
2022/07/12 04:50:12;;;;;;;0.50;0.47;;;13.80;99.90;;;;;;4949572;28;20468;-64
2022/07/12 04:52:39;;;;;;;0.40;0.40;;;14.70;99.90;;;;;;4952811;28;20523;-65
2022/07/12 04:55:06;;;;;;;0.40;0.40;;;15.80;99.90;;;;;;4949216;28;20909;-64
2022/07/12 04:57:34;;;;;;;0.33;0.33;;;16.90;99.90;;;;;;4957243;28;20441;-62
2022/07/12 05:00:07;;;;;;;0.40;0.40;;;17.90;99.90;;;;;;4965514;28;20502;-62
2022/07/12 05:02:33;;;;;;;0.40;0.40;;;18.80;99.90;;;;;;4963701;28;20525;-64
2022/07/12 05:05:00;;;;;;;0.50;0.50;;;19.50;99.90;;;;;;4951164;28;20469;-63
2022/07/12 05:07:30;;;;;;;0.40;0.40;;;19.90;99.90;;;;;;4957324;28;20432;-63
2022/07/12 05:09:57;;;;;;;0.50;0.50;;;20.10;99.90;;;;;;4987059;28;20989;-63
2022/07/12 05:12:24;;;;;;;0.50;0.50;;;20.40;99.90;;;;;;4951785;28;20531;-63
2022/07/12 05:14:51;;;;;;;0.52;0.52;;;20.90;99.90;;;;;;4965126;28;20956;-64
2022/07/12 05:17:17;;;;;;;0.40;0.40;;;21.60;99.90;;;;;;4952781;28;20483;-61
2022/07/12 05:19:46;;;;;;;0.43;0.43;;;22.20;99.90;;;;;;4951653;28;20446;-61
2022/07/12 05:22:13;;;;;;;0.30;0.30;;;22.90;99.90;;;;;;4959164;28;21143;-63
2022/07/12 05:24:40;;;;;;;0.50;0.50;;;23.30;99.90;;;;;;4989072;28;20444;-61
2022/07/12 05:27:07;;;;;;;0.40;0.40;;;23.50;99.90;;;;;;4958005;28;20436;-61
2022/07/12 05:29:34;;;;;;;0.90;0.40;;;23.70;99.90;;;;;;4971383;28;20438;-61
2022/07/12 05:32:01;;;;;;;0.43;0.43;;;24.10;99.90;;;;;;4954657;28;20797;-61
2022/07/12 05:34:38;;;;;;;0.40;0.40;;;24.50;99.90;;;;;;4954751;28;20922;-62
2022/07/12 05:37:05;;;;;;;0.30;0.30;;;25.10;99.90;;;;;;4971492;28;20479;-62
2022/07/12 05:39:32;;;;;;;0.40;0.40;;;25.30;99.90;;;;;;4955520;28;20774;-62
2022/07/12 05:42:01;;;;;;;0.47;0.47;;;25.20;99.90;;;;;;4950389;28;20452;-62
2022/07/12 05:44:28;;;;;;;0.40;0.40;;;25.30;99.90;;;;;;4952324;28;20501;-62
2022/07/12 05:46:56;;;;;;;0.45;0.45;;;25.20;99.90;;;;;;4952521;28;20514;-62
2022/07/12 05:49:22;;;;;;;0.40;0.40;;;24.90;99.90;;;;;;4955082;28;20923;-62
2022/07/12 05:54:35;;;;;;;0.30;0.30;;;24.50;99.90;;;;;;4951252;28;20974;-62
2022/07/12 05:57:02;;;;;;;0.40;0.40;;;25.00;99.90;;;;;;4964695;28;20454;-62
2022/07/12 05:59:29;;;;;;;0.40;0.40;;;25.10;99.90;;;;;;4944619;28;20451;-61
2022/07/12 06:01:57;;;;;;;0.38;0.38;;;25.50;99.90;;;;;;4956229;28;20842;-62
2022/07/12 06:04:26;;;;;;;0.40;0.40;;;25.40;99.90;;;;;;4958816;28;20446;-62
2022/07/12 06:06:53;;;;;;;0.38;0.38;;;25.40;99.90;;;;;;4963953;28;20547;-61
2022/07/12 06:09:19;;;;;;;0.43;0.43;;;25.40;99.90;;;;;;4967196;28;20519;-61
2022/07/12 06:11:46;;;;;;;0.40;0.40;;;25.70;99.90;;;;;;4959944;28;20431;-61
2022/07/12 06:14:13;;;;;;;0.37;0.37;;;26.10;99.90;;;;;;4962123;28;20443;-62
2022/07/12 06:16:40;;;;;;;0.30;0.30;;;26.70;99.90;;;;;;4967094;28;20459;-61
2022/07/12 06:19:07;;;;;;;0.25;0.25;;;26.60;99.90;;;;;;4957394;28;20468;-63
2022/07/12 06:21:36;;;;;;;0.40;0.40;;;26.70;99.90;;;;;;4962663;28;20447;-61
2022/07/12 06:24:03;;;;;;;0.40;0.40;;;26.50;99.90;;;;;;4955581;28;21121;-62
2022/07/12 06:26:34;;;;;;;0.30;0.30;;;26.60;99.90;;;;;;4958475;28;20440;-63
2022/07/12 06:29:00;;;;;;;0.32;0.32;;;27.00;99.90;;;;;;4956749;28;20446;-63
2022/07/12 06:31:28;;;;;;;0.50;0.50;;;27.10;99.90;;;;;;4971443;28;20430;-61
2022/07/12 06:34:01;;;;;;;0.30;0.30;;;26.60;99.90;;;;;;4950385;28;20442;-62
2022/07/12 06:36:28;;;;;;;0.30;0.30;;;26.50;99.90;;;;;;4956296;28;20434;-62
2022/07/12 06:38:54;;;;;;;0.30;0.30;;;26.40;99.90;;;;;;4973754;28;20443;-62
2022/07/12 06:41:22;;;;;;;0.30;0.30;;;26.50;99.90;;;;;;4952268;28;20519;-63
2022/07/12 06:43:49;;;;;;;0.35;0.35;;;26.80;99.90;;;;;;4953242;28;20438;-62
2022/07/12 06:46:16;;;;;;;0.40;0.40;;;26.20;99.90;;;;;;4964679;28;20433;-61
2022/07/12 06:48:43;;;;;;;0.50;0.50;;;26.20;99.90;;;;;;4954787;28;20436;-61
2022/07/12 06:51:09;;;;;;;0.30;0.30;;;26.40;99.90;;;;;;4958673;28;22078;-62
2022/07/12 06:53:36;;;;;;;0.32;0.32;;;26.80;99.90;;;;;;4954640;28;20439;-63
2022/07/12 06:56:03;;;;;;;0.50;0.50;;;27.40;99.90;;;;;;4980200;28;20444;-62
2022/07/12 06:58:30;;;;;;;0.32;0.32;;;27.70;99.90;;;;;;4963964;28;20436;-62
2022/07/12 07:00:57;;;;;;;0.43;0.43;;;27.90;99.90;;;;;;4956011;28;20489;-61
2022/07/12 07:03:24;;;;;;;0.40;0.40;;;27.60;99.90;;;;;;4959246;28;20538;-62
2022/07/12 07:05:51;;;;;;;0.30;0.30;;;27.60;99.90;;;;;;4974069;28;20847;-62
2022/07/12 07:08:18;;;;;;;0.40;0.40;;;27.50;99.90;;;;;;4962535;28;20446;-60
2022/07/12 07:10:44;;;;;;;0.22;0.22;;;25.70;99.90;;;;;;4967740;28;20463;-61
2022/07/12 07:13:11;;;;;;;0.35;0.35;;;25.90;99.90;;;;;;4966869;28;20430;-60
2022/07/12 07:15:44;;;;;;;0.40;0.40;;;26.00;99.90;;;;;;4957608;28;20462;-61
2022/07/12 07:18:11;;;;;;;0.38;0.38;;;25.90;99.90;;;;;;4959693;28;20444;-61
2022/07/12 07:20:40;;;;;;;0.35;0.35;;;26.10;99.90;;;;;;4979304;28;20454;-61
2022/07/12 07:23:07;;;;;;;0.30;0.30;;;26.90;99.90;;;;;;4957606;28;20436;-60
2022/07/12 07:25:34;;;;;;;0.25;0.25;;;27.30;99.90;;;;;;4961115;28;20437;-61
2022/07/12 07:28:02;;;;;;;0.30;0.30;;;27.80;99.90;;;;;;4959682;28;20515;-61
2022/07/12 07:33:21;;;;;;;0.40;0.40;;;27.70;99.90;;;;;;4962502;28;20439;-62
2022/07/12 07:35:50;;;;;;;0.40;0.40;;;27.80;99.90;;;;;;4950580;28;20496;-61
2022/07/12 07:38:18;;;;;;;0.38;0.38;;;27.80;99.90;;;;;;4958366;28;20432;-62
2022/07/12 07:40:45;;;;;;;0.40;0.40;;;27.60;99.90;;;;;;4988703;28;20442;-60
2022/07/12 07:43:12;;;;;;;0.30;0.30;;;27.60;99.90;;;;;;4956611;28;20492;-61
2022/07/12 07:45:38;;;;;;;0.60;0.40;;;27.80;99.90;;;;;;4958418;28;20452;-62
2022/07/12 07:48:05;;;;;;;0.25;0.25;;;28.30;99.90;;;;;;4953112;28;20442;-61
2022/07/12 07:50:50;;;;;;;0.40;0.40;;;28.20;99.90;;;;;;4952460;28;20450;-62
2022/07/12 07:53:17;;;;;;;0.30;0.30;;;28.50;99.90;;;;;;4957407;28;20464;-62
2022/07/12 07:55:44;;;;;;;0.30;0.30;;;28.90;99.90;;;;;;4983755;28;20450;-61
2022/07/12 07:58:15;;;;;;;0.20;0.20;;;29.50;99.90;;;;;;4952495;28;20891;-62
2022/07/12 08:00:41;;;;;;;0.38;0.38;;;29.30;99.90;;;;;;4960374;28;20462;-61
2022/07/12 08:03:08;;;;;;;0.30;0.30;;;29.80;99.90;;;;;;4963174;28;20518;-62
2022/07/12 08:05:35;;;;;;;0.30;0.30;;;29.70;99.90;;;;;;4970006;28;20436;-60
2022/07/12 08:08:02;;;;;;;0.50;0.30;;;29.60;99.90;;;;;;4966321;28;20459;-60
2022/07/12 08:10:29;;;;;;;0.30;0.30;;;30.10;99.90;;;;;;4962791;28;20438;-61
2022/07/12 08:12:56;;;;;;;0.30;0.30;;;30.50;99.90;;;;;;4960223;28;20764;-62
2022/07/12 08:15:23;;;;;;;0.30;0.30;;;31.00;99.40;;;;;;4960656;28;20447;-61
2022/07/12 08:17:49;;;;;;;0.30;0.30;;;30.70;99.40;;;;;;4965833;28;20528;-60
2022/07/12 08:20:20;;;;;;;0.32;0.32;;;30.30;99.80;;;;;;4952446;28;20436;-62
2022/07/12 08:23:07;;;;;;;0.40;0.40;;;30.10;99.30;;;;;;4952700;28;20499;-61
2022/07/12 08:25:34;;;;;;;0.30;0.30;;;30.40;99.70;;;;;;4965334;28;20436;-61
2022/07/12 08:28:01;;;;;;;0.20;0.20;;;30.60;98.90;;;;;;4963185;28;20572;-61
2022/07/12 08:30:27;;;;;;;0.35;0.35;;;31.20;99.00;;;;;;4961908;28;20434;-61
2022/07/12 08:32:57;;;;;;;0.40;0.40;;;29.20;99.30;;;;;;4959152;28;20439;-61
2022/07/12 08:35:24;;;;;;;0.30;0.30;;;29.00;98.70;;;;;;4982420;28;20540;-61
2022/07/12 08:37:54;;;;;;;0.30;0.30;;;28.40;99.90;;;;;;4957342;28;20547;-61
2022/07/12 08:40:22;;;;;;;0.30;0.30;;;29.20;98.50;;;;;;4965304;28;20481;-61
2022/07/12 08:42:51;;;;;;;0.30;0.30;;;29.30;98.30;;;;;;4965673;28;20534;-61
2022/07/12 08:45:17;;;;;;;0.20;0.20;;;28.50;98.10;;;;;;4966034;28;20440;-62
2022/07/12 08:47:47;;;;;;;0.30;0.30;;;28.90;98.20;;;;;;4965032;28;20822;-61
2022/07/12 08:50:19;;;;;;;0.30;0.30;;;28.70;98.30;;;;;;4963902;28;20521;-61
2022/07/12 08:52:51;;;;;;;0.20;0.20;;;29.50;99.10;;;;;;4959589;28;20857;-62
2022/07/12 08:55:30;;;;;;;0.30;0.30;;;30.10;98.40;;;;;;4964876;28;20784;-61
2022/07/12 08:58:00;;;;;;;0.20;0.20;;;29.80;97.80;;;;;;4966424;28;20451;-62
2022/07/12 09:00:28;;;;;;;0.40;0.20;;;30.80;97.80;;;;;;4966308;28;20436;-61
2022/07/12 09:02:57;;;;;;;0.30;0.30;;;30.60;96.90;;;;;;4962010;28;20440;-61
2022/07/12 09:05:34;;;;;;;0.30;0.30;;;29.60;97.00;;;;;;4961657;28;20501;-62
2022/07/12 09:08:03;;;;;;;0.32;0.32;;;28.30;98.10;;;;;;4966108;28;20786;-61
2022/07/12 09:10:30;;;;;;;0.30;0.30;;;27.40;99.10;;;;;;4954311;28;20469;-61
2022/07/12 09:12:57;;;;;;;0.30;0.30;;;26.60;99.50;;;;;;4961196;28;20524;-62
2022/07/12 09:15:29;;;;;;;0.20;0.20;;;26.20;99.70;;;;;;4964619;28;20462;-62
2022/07/12 09:18:04;;;;;;;0.20;0.20;;;25.90;99.90;;;;;;4965912;28;20436;-61
2022/07/12 09:20:36;;;;;;;0.20;0.20;;;26.40;99.90;;;;;;4964022;28;20438;-61
2022/07/12 09:23:12;;;;;;;0.40;0.40;;;27.50;99.00;;;;;;4962918;28;20543;-60
2022/07/12 09:25:43;;;;;;;0.30;0.30;;;28.60;98.10;;;;;;4963393;28;20527;-61
2022/07/12 09:28:10;;;;;;;0.30;0.30;;;28.80;97.70;;;;;;4956345;28;20434;-61
2022/07/12 09:30:47;;;;;;;0.30;0.30;;;29.70;97.80;;;;;;4958026;28;20432;-61
2022/07/12 09:36:06;;;;;;;0.30;0.30;;;30.30;96.70;;;;;;4960574;28;20443;-62
2022/07/12 09:38:38;;;;;;;0.40;0.40;;;31.30;96.50;;;;;;4965885;28;20455;-61
2022/07/12 09:41:08;;;;;;;0.40;0.40;;;32.00;96.00;;;;;;4962649;28;20546;-62
2022/07/12 09:43:35;;;;;;;0.30;0.30;;;31.50;95.40;;;;;;4954198;28;20483;-63
2022/07/12 09:46:02;;;;;;;0.30;0.30;;;31.90;95.90;;;;;;4963916;28;20466;-62
2022/07/12 09:48:29;;;;;;;0.30;0.30;;;31.90;95.00;;;;;;4963442;28;20477;-62
2022/07/12 09:50:58;;;;;;;0.30;0.30;;;31.30;94.60;;;;;;4964286;28;20439;-63
2022/07/12 09:53:36;;;;;;;0.35;0.35;;;30.50;95.50;;;;;;4963439;28;20487;-61
2022/07/12 09:56:07;;;;;;;0.30;0.30;;;29.20;95.90;;;;;;4961087;28;20447;-61
2022/07/12 09:58:40;;;;;;;0.30;0.30;;;28.20;97.00;;;;;;4965500;28;20523;-62
2022/07/12 10:01:08;;;;;;;0.30;0.30;;;27.70;97.90;;;;;;4964485;28;20444;-61
2022/07/12 10:03:43;;;;;;;0.30;0.30;;;28.10;99.00;;;;;;4952569;28;21018;-62
2022/07/12 10:06:12;;;;;;;0.30;0.30;;;28.30;97.50;;;;;;4962015;28;20806;-61
2022/07/12 10:08:40;;;;;;;0.30;0.30;;;28.00;97.60;;;;;;4957888;28;20442;-61
2022/07/12 10:11:07;;;;;;;0.30;0.30;;;28.10;97.70;;;;;;4951239;28;20432;-61
2022/07/12 10:13:35;;;;;;;0.35;0.35;;;28.30;97.40;;;;;;4951171;28;20446;-62
2022/07/12 10:16:03;;;;;;;0.30;0.30;;;28.30;97.60;;;;;;4954221;28;20533;-62
2022/07/12 10:18:30;;;;;;;0.90;0.40;;;29.10;96.10;;;;;;4950985;28;20510;-61
2022/07/12 10:20:57;;;;;;;0.30;0.30;;;29.60;96.10;;;;;;4957375;28;20944;-61
2022/07/12 10:23:36;;;;;;;0.30;0.30;;;29.80;95.00;;;;;;4959662;28;20462;-62
2022/07/12 10:26:15;;;;;;;0.25;0.25;;;29.90;95.20;;;;;;4961825;28;20561;-62
2022/07/12 10:29:05;;;;;;;0.22;0.22;;;29.90;95.30;;;;;;4956644;28;21010;-61
2022/07/12 10:31:37;;;;;;;0.30;0.30;;;30.20;95.40;;;;;;4956636;28;20447;-61
2022/07/12 10:34:21;;;;;;;0.20;0.20;;;30.00;95.20;;;;;;4958267;28;20452;-62
2022/07/12 10:36:54;;;;;;;0.30;0.30;;;30.10;94.80;;;;;;4956375;28;20869;-62
2022/07/12 10:39:41;;;;;;;0.20;0.20;;;29.50;94.80;;;;;;4951292;28;20529;-62
2022/07/12 10:42:08;;;;;;;0.20;0.20;;;29.80;94.60;;;;;;4951843;28;20949;-62
2022/07/12 10:44:45;;;;;;;0.30;0.30;;;29.10;94.40;;;;;;4954211;28;20479;-61
2022/07/12 10:47:15;;;;;;;0.40;0.40;;;29.30;95.50;;;;;;4953462;28;20518;-61
2022/07/12 10:49:52;;;;;;;0.28;0.28;;;29.80;94.80;;;;;;4959463;28;21150;-61
2022/07/12 10:52:26;;;;;;;0.20;0.20;;;29.80;94.10;;;;;;4964980;28;20523;-62
2022/07/12 10:54:56;;;;;;;0.30;0.30;;;30.20;94.50;;;;;;4958309;28;20441;-62
2022/07/12 10:57:49;;;;;;;0.30;0.30;;;30.60;94.40;;;;;;4957862;28;20432;-63
2022/07/12 11:00:18;;;;;;;0.25;0.25;;;30.80;94.80;;;;;;4955786;28;20456;-62
2022/07/12 11:02:44;;;;;;;0.30;0.30;;;30.90;94.60;;;;;;4964146;28;20911;-63
2022/07/12 11:05:11;;;;;;;0.30;0.30;;;31.10;94.80;;;;;;4963045;28;20614;-63
2022/07/12 11:07:38;;;;;;;0.30;0.30;;;31.30;94.10;;;;;;4971870;28;20487;-61
2022/07/12 11:10:11;;;;;;;0.30;0.30;;;31.20;93.80;;;;;;4958669;28;20440;-63
2022/07/12 11:12:40;;;;;;;0.30;0.30;;;31.20;93.60;;;;;;4952041;28;20441;-63
2022/07/12 11:15:08;;;;;;;0.30;0.30;;;30.40;93.50;;;;;;4954433;28;20498;-62
2022/07/12 11:17:38;;;;;;;0.40;0.40;;;30.20;93.90;;;;;;4957339;28;20569;-62
2022/07/12 11:20:13;;;;;;;0.30;0.30;;;29.60;93.80;;;;;;4967879;28;20547;-62
2022/07/12 11:22:41;;;;;;;0.30;0.30;;;29.00;94.40;;;;;;4969807;28;20440;-63
2022/07/12 11:25:12;;;;;;;0.20;0.20;;;28.70;95.10;;;;;;4956903;28;20542;-63
2022/07/12 11:27:39;;;;;;;0.30;0.30;;;28.60;94.80;;;;;;4966407;28;20440;-63
2022/07/12 11:30:08;;;;;;;0.23;0.23;;;28.80;95.10;;;;;;4963637;28;20479;-63
2022/07/12 11:32:40;;;;;;;0.30;0.30;;;29.50;95.20;;;;;;4958713;28;20906;-63
2022/07/12 11:35:28;;;;;;;0.30;0.30;;;29.90;94.50;;;;;;4954958;28;20634;-63
2022/07/12 11:37:57;;;;;;;0.35;0.35;;;30.20;94.30;;;;;;4965284;28;20437;-63
2022/07/12 11:40:26;;;;;;;0.30;0.30;;;30.50;94.40;;;;;;4967753;28;20436;-62
2022/07/12 11:42:58;;;;;;;0.20;0.20;;;30.40;94.00;;;;;;4962758;28;21064;-62
2022/07/12 11:45:26;;;;;;;0.20;0.20;;;30.70;93.80;;;;;;4954376;28;20437;-63
2022/07/12 11:47:54;;;;;;;0.20;0.20;;;30.40;93.80;;;;;;4968596;28;20471;-63
2022/07/12 11:50:21;;;;;;;0.30;0.30;;;30.60;93.00;;;;;;4959710;28;20478;-62
2022/07/12 11:52:48;;;;;;;0.30;0.30;;;30.40;93.50;;;;;;4968478;28;20806;-63
2022/07/12 11:55:18;;;;;;;0.22;0.22;;;30.10;93.60;;;;;;4966022;28;20454;-62
2022/07/12 11:57:44;;;;;;;0.30;0.30;;;30.50;92.60;;;;;;4961665;28;20442;-62
2022/07/12 12:00:20;;;;;;;0.30;0.30;;;30.70;92.20;;;;;;4955949;28;20489;-63
2022/07/12 12:02:54;;;;;;;0.20;0.20;;;30.70;92.30;;;;;;4975197;28;20436;-63
2022/07/12 12:05:22;;;;;;;0.30;0.30;;;30.80;92.80;;;;;;4963123;28;20444;-63
2022/07/12 12:07:51;;;;;;;0.35;0.35;;;30.50;92.50;;;;;;4960016;28;20440;-62
2022/07/12 12:10:21;;;;;;;0.30;0.30;;;30.50;93.70;;;;;;4958681;28;20465;-62
2022/07/12 12:12:56;;;;;;;0.20;0.20;;;30.80;92.20;;;;;;4962173;28;20498;-62
2022/07/12 12:15:33;;;;;;;0.38;0.38;;;30.70;92.10;;;;;;4960910;28;20456;-62
2022/07/12 12:18:08;;;;;;;0.30;0.30;;;30.00;92.60;;;;;;4957121;28;20447;-62
2022/07/12 12:20:36;;;;;;;0.28;0.28;;;30.30;92.30;;;;;;4958063;28;20481;-62
2022/07/12 12:23:22;;;;;;;0.20;0.20;;;30.40;92.30;;;;;;4963932;28;20440;-62
2022/07/12 12:25:49;;;;;;;0.30;0.30;;;30.50;92.60;;;;;;4957835;28;20705;-62
2022/07/12 12:28:21;;;;;;;0.30;0.30;;;30.60;93.10;;;;;;4983377;28;20499;-61
2022/07/12 12:30:55;;;;;;;0.38;0.38;;;30.60;92.60;;;;;;4960439;28;20490;-61
2022/07/12 12:33:44;;;;;;;0.30;0.30;;;30.30;92.70;;;;;;4959378;28;20442;-64
2022/07/12 12:36:18;;;;;;;0.40;0.40;;;29.90;92.70;;;;;;4960633;28;20447;-63
2022/07/12 12:38:45;;;;;;;0.20;0.20;;;29.80;93.10;;;;;;4971501;28;20528;-60
2022/07/12 12:41:13;;;;;;;0.30;0.30;;;29.60;93.00;;;;;;4969566;28;20442;-61
2022/07/12 12:43:40;;;;;;;0.35;0.35;;;29.40;93.20;;;;;;4958696;28;20493;-62
2022/07/12 12:46:07;;;;;;;0.30;0.30;;;29.60;92.90;;;;;;4951644;28;20438;-62
2022/07/12 12:48:35;;;;;;;0.30;0.30;;;29.90;92.70;;;;;;4959926;28;20432;-62
2022/07/12 12:51:02;;;;;;;0.50;0.40;;;30.30;92.70;;;;;;4960176;28;20436;-63
2022/07/12 12:53:29;;;;;;;0.30;0.30;;;30.20;92.50;;;;;;4955742;28;20437;-61
2022/07/12 12:55:56;;;;;;;0.30;0.30;;;30.50;92.70;;;;;;4951665;28;20444;-66
2022/07/12 12:58:26;;;;;;;0.30;0.30;;;31.00;92.50;;;;;;4957363;28;20960;-63
2022/07/12 13:00:54;;;;;;;0.30;0.30;;;30.90;92.00;;;;;;4955266;28;20444;-59
2022/07/12 13:03:25;;;;;;;0.22;0.22;;;30.40;92.90;;;;;;4957931;28;20511;-60
2022/07/12 13:05:55;;;;;;;0.20;0.20;;;30.30;93.00;;;;;;4955995;28;20931;-63